createdAt,value
2022-12-31T00:00:08.977Z,4.32
2022-12-31T00:02:36.338Z,4.36
2022-12-31T00:05:04.560Z,4.51
2022-12-31T00:09:57.627Z,4.53
2022-12-31T00:12:25.525Z,4.68
2022-12-31T00:14:52.198Z,4.84
2022-12-31T00:17:19.052Z,4.99
2022-12-31T00:19:45.677Z,4.97
2022-12-31T00:22:12.354Z,4.86
2022-12-31T00:24:39.023Z,4.67
2022-12-31T00:27:05.654Z,4.42
2022-12-31T00:29:32.286Z,4.29
2022-12-31T00:31:58.969Z,4.17
2022-12-31T00:34:25.680Z,4.04
2022-12-31T00:36:53.221Z,3.95
2022-12-31T00:39:20.007Z,3.95
2022-12-31T00:41:46.863Z,3.98
2022-12-31T00:44:14.151Z,4.04
2022-12-31T00:49:07.151Z,3.86
2022-12-31T00:51:33.837Z,3.83
2022-12-31T00:54:00.572Z,3.84
2022-12-31T00:56:29.500Z,3.93
2022-12-31T00:58:56.577Z,3.91
2022-12-31T01:01:27.946Z,3.93
2022-12-31T01:03:58.609Z,3.95
2022-12-31T01:06:25.307Z,3.97
2022-12-31T01:08:53.726Z,3.96
2022-12-31T01:11:22.301Z,3.89
2022-12-31T01:14:00.198Z,3.73
2022-12-31T01:16:32.804Z,3.48
2022-12-31T01:19:01.391Z,3.50
2022-12-31T01:21:28.646Z,3.44
2022-12-31T01:23:55.348Z,3.40
2022-12-31T01:26:22.073Z,3.37
2022-12-31T01:28:48.849Z,3.26
2022-12-31T01:31:17.808Z,3.29
2022-12-31T01:33:45.533Z,3.30
2022-12-31T01:36:25.068Z,3.29
2022-12-31T01:38:53.030Z,3.22
2022-12-31T01:41:23.278Z,3.39
2022-12-31T01:43:54.801Z,3.40
2022-12-31T01:46:33.996Z,3.48
2022-12-31T01:49:09.441Z,3.47
2022-12-31T01:51:37.649Z,3.56
2022-12-31T01:54:09.343Z,3.49
2022-12-31T01:56:39.324Z,3.56
2022-12-31T01:59:09.963Z,3.50
2022-12-31T02:01:38.546Z,3.57
2022-12-31T02:04:11.921Z,3.59
2022-12-31T02:06:46.919Z,3.65
2022-12-31T02:09:13.971Z,3.61
2022-12-31T02:11:40.731Z,3.57
2022-12-31T02:14:18.714Z,3.69
2022-12-31T02:17:10.835Z,3.67
2022-12-31T02:20:00.507Z,3.56
2022-12-31T02:22:57.944Z,3.42
2022-12-31T02:25:43.126Z,3.49
2022-12-31T02:28:28.295Z,3.45
2022-12-31T02:31:07.555Z,3.40
2022-12-31T02:33:41.701Z,3.46
2022-12-31T02:36:19.821Z,3.40
2022-12-31T02:38:48.678Z,3.46
2022-12-31T02:41:36.795Z,3.53
2022-12-31T02:44:27.249Z,3.47
2022-12-31T02:47:09.120Z,3.57
2022-12-31T02:49:53.766Z,3.54
2022-12-31T02:52:42.237Z,3.54
2022-12-31T02:55:18.143Z,3.39
2022-12-31T02:58:06.003Z,3.52
2022-12-31T03:00:53.357Z,3.53
2022-12-31T03:03:21.589Z,3.29
2022-12-31T03:05:50.062Z,3.46
2022-12-31T03:08:24.865Z,3.37
2022-12-31T03:10:52.210Z,3.33
2022-12-31T03:13:18.816Z,3.23
2022-12-31T03:15:45.460Z,2.95
2022-12-31T03:18:15.581Z,2.86
2022-12-31T03:21:06.917Z,2.66
2022-12-31T03:23:42.815Z,2.40
2022-12-31T03:26:11.470Z,2.47
2022-12-31T03:28:41.064Z,2.36
2022-12-31T03:31:08.262Z,2.33
2022-12-31T03:33:41.089Z,2.30
2022-12-31T03:36:11.548Z,2.27
2022-12-31T03:38:38.498Z,2.19
2022-12-31T03:41:05.631Z,2.05
2022-12-31T03:43:32.321Z,2.02
2022-12-31T03:46:01.510Z,2.03
2022-12-31T03:48:28.346Z,2.08
2022-12-31T03:50:55.340Z,2.05
2022-12-31T03:53:23.251Z,1.90
2022-12-31T03:55:53.469Z,1.84
2022-12-31T03:58:20.457Z,1.83
2022-12-31T04:00:47.118Z,1.77
2022-12-31T04:03:14.211Z,1.81
2022-12-31T04:05:41.295Z,1.72
2022-12-31T04:08:07.990Z,1.81
2022-12-31T04:10:34.733Z,1.73
2022-12-31T04:13:04.433Z,1.86
2022-12-31T04:15:31.212Z,1.79
2022-12-31T04:17:58.446Z,1.91
2022-12-31T04:20:25.243Z,1.74
2022-12-31T04:22:51.871Z,1.43
2022-12-31T04:25:18.657Z,1.73
2022-12-31T04:27:45.407Z,1.78
2022-12-31T04:30:13.280Z,1.92
2022-12-31T04:32:40.160Z,2.05
2022-12-31T04:35:07.515Z,1.95
2022-12-31T04:37:34.121Z,1.95
2022-12-31T04:40:05.906Z,1.97
2022-12-31T04:42:33.831Z,1.98
2022-12-31T04:45:00.616Z,1.87
2022-12-31T04:47:27.319Z,1.89
2022-12-31T04:49:54.023Z,1.94
2022-12-31T04:52:20.800Z,1.77
2022-12-31T04:54:47.451Z,1.49
2022-12-31T04:57:14.143Z,1.40
2022-12-31T04:59:40.881Z,1.45
2022-12-31T05:02:07.653Z,1.37
2022-12-31T05:04:34.446Z,1.37
2022-12-31T05:07:01.053Z,1.31
2022-12-31T05:09:28.436Z,1.19
2022-12-31T05:11:55.132Z,1.46
2022-12-31T05:14:21.839Z,1.32
2022-12-31T05:16:48.557Z,1.46
2022-12-31T05:19:15.414Z,1.53
2022-12-31T05:21:41.992Z,1.47
2022-12-31T05:24:08.874Z,1.67
2022-12-31T05:26:35.575Z,1.69
2022-12-31T05:29:02.147Z,1.81
2022-12-31T05:31:28.764Z,1.87
2022-12-31T05:33:55.387Z,1.87
2022-12-31T05:36:21.981Z,2.02
2022-12-31T05:38:48.578Z,2.11
2022-12-31T05:41:15.269Z,2.06
2022-12-31T05:43:41.938Z,2.00
2022-12-31T05:46:08.940Z,1.83
2022-12-31T05:48:37.053Z,1.51
2022-12-31T05:51:03.761Z,1.50
2022-12-31T05:53:30.440Z,1.51
2022-12-31T05:55:57.032Z,1.44
2022-12-31T05:58:23.768Z,1.50
2022-12-31T06:00:51.869Z,1.27
2022-12-31T06:03:18.756Z,1.37
2022-12-31T06:05:45.464Z,1.31
2022-12-31T06:08:12.275Z,1.52
2022-12-31T06:10:39.783Z,1.62
2022-12-31T06:13:06.756Z,1.86
2022-12-31T06:15:33.615Z,2.16
2022-12-31T06:18:00.371Z,2.28
2022-12-31T06:20:27.115Z,2.83
2022-12-31T06:22:53.898Z,3.09
2022-12-31T06:25:20.651Z,3.56
2022-12-31T06:27:47.365Z,3.90
2022-12-31T06:30:14.554Z,3.85
2022-12-31T06:32:42.223Z,4.09
2022-12-31T06:35:09.320Z,4.05
2022-12-31T06:37:36.037Z,3.91
2022-12-31T06:40:03.278Z,3.81
2022-12-31T06:42:31.135Z,3.82
2022-12-31T06:44:59.196Z,3.77
2022-12-31T06:47:26.434Z,3.30
2022-12-31T06:49:53.313Z,3.31
2022-12-31T06:52:20.553Z,3.47
2022-12-31T06:54:47.679Z,3.42
2022-12-31T06:57:14.592Z,3.53
2022-12-31T06:59:41.573Z,3.59
2022-12-31T07:02:21.325Z,3.72
2022-12-31T07:05:02.394Z,3.93
2022-12-31T07:07:48.358Z,3.95
2022-12-31T07:10:29.976Z,3.99
2022-12-31T07:13:02.940Z,4.10
2022-12-31T07:15:53.959Z,4.19
2022-12-31T07:19:13.267Z,4.24
2022-12-31T07:21:41.535Z,4.26
2022-12-31T07:24:10.137Z,4.34
2022-12-31T07:26:54.287Z,4.38
2022-12-31T07:29:34.753Z,4.39
2022-12-31T07:32:19.698Z,4.44
2022-12-31T07:34:55.698Z,4.28
2022-12-31T07:37:37.712Z,4.48
2022-12-31T07:40:24.025Z,4.66
2022-12-31T07:43:15.113Z,4.86
2022-12-31T07:46:15.316Z,4.95
2022-12-31T07:48:42.139Z,5.01
2022-12-31T07:51:10.976Z,5.09
2022-12-31T07:53:38.205Z,5.00
2022-12-31T07:56:07.203Z,5.22
2022-12-31T07:59:02.658Z,5.49
2022-12-31T08:01:35.958Z,5.68
2022-12-31T08:04:09.614Z,5.89
2022-12-31T08:06:48.385Z,5.94
2022-12-31T08:09:46.113Z,6.10
2022-12-31T08:12:14.219Z,6.19
2022-12-31T08:14:47.062Z,6.18
2022-12-31T08:17:15.811Z,6.08
2022-12-31T08:19:43.149Z,6.18
2022-12-31T08:22:19.670Z,6.35
2022-12-31T08:25:13.380Z,6.54
2022-12-31T08:28:07.819Z,6.70
2022-12-31T08:30:41.725Z,6.89
2022-12-31T08:33:26.322Z,7.16
2022-12-31T08:36:17.328Z,7.42
2022-12-31T08:38:57.052Z,7.60
2022-12-31T08:41:42.712Z,7.57
2022-12-31T08:44:28.593Z,7.54
2022-12-31T08:47:40.361Z,7.22
2022-12-31T08:50:13.005Z,7.51
2022-12-31T08:52:39.742Z,7.62
2022-12-31T08:55:06.953Z,7.87
2022-12-31T08:58:06.250Z,7.99
2022-12-31T09:00:35.127Z,8.17
2022-12-31T09:03:07.730Z,8.36
2022-12-31T09:06:02.482Z,8.38
2022-12-31T09:08:44.241Z,8.41
2022-12-31T09:11:22.863Z,8.32
2022-12-31T09:14:08.453Z,8.27
2022-12-31T09:17:04.709Z,8.29
2022-12-31T09:19:31.670Z,8.35
2022-12-31T09:21:58.869Z,8.38
2022-12-31T09:24:25.969Z,8.48
2022-12-31T09:27:27.218Z,8.82
2022-12-31T09:30:13.549Z,8.88
2022-12-31T09:32:49.202Z,9.00
2022-12-31T09:35:29.864Z,8.96
2022-12-31T09:38:07.905Z,9.16
2022-12-31T09:40:54.048Z,9.05
2022-12-31T09:44:00.873Z,9.09
2022-12-31T09:46:43.424Z,9.31
2022-12-31T09:49:28.264Z,9.27
2022-12-31T09:52:38.482Z,9.21
2022-12-31T09:55:17.201Z,9.47
2022-12-31T09:58:24.940Z,9.63
2022-12-31T10:01:29.319Z,10.02
2022-12-31T10:04:17.607Z,10.18
2022-12-31T10:07:14.518Z,10.44
2022-12-31T10:10:03.716Z,10.34
2022-12-31T10:12:55.152Z,10.53
2022-12-31T10:15:33.934Z,10.50
2022-12-31T10:18:06.200Z,10.65
2022-12-31T10:20:58.139Z,10.60
2022-12-31T10:23:47.591Z,10.44
2022-12-31T10:26:37.654Z,10.45
2022-12-31T10:29:25.895Z,10.39
2022-12-31T10:32:05.955Z,10.80
2022-12-31T10:34:55.435Z,10.76
2022-12-31T10:37:28.053Z,10.84
2022-12-31T10:40:21.413Z,10.97
2022-12-31T10:42:59.798Z,11.27
2022-12-31T10:45:44.797Z,11.46
2022-12-31T10:48:14.372Z,11.78
2022-12-31T10:50:59.715Z,11.60
2022-12-31T10:53:26.367Z,11.87
2022-12-31T10:55:58.977Z,12.09
2022-12-31T10:58:45.920Z,11.94
2022-12-31T11:01:33.135Z,12.21
2022-12-31T11:04:36.282Z,12.16
2022-12-31T11:07:41.443Z,12.39
2022-12-31T11:10:32.715Z,12.53
2022-12-31T11:13:22.123Z,12.51
2022-12-31T11:16:19.567Z,12.30
2022-12-31T11:19:07.062Z,12.17
2022-12-31T11:22:11.291Z,12.40
2022-12-31T11:24:47.414Z,12.61
2022-12-31T11:27:19.960Z,12.93
2022-12-31T11:29:56.041Z,13.03
2022-12-31T11:32:29.250Z,12.86
2022-12-31T11:35:25.587Z,12.99
2022-12-31T11:38:00.739Z,12.89
2022-12-31T11:40:54.341Z,13.27
2022-12-31T11:43:27.413Z,13.42
2022-12-31T11:46:16.958Z,13.70
2022-12-31T11:49:26.481Z,14.01
2022-12-31T11:52:10.695Z,14.22
2022-12-31T11:54:46.325Z,14.19
2022-12-31T11:57:21.772Z,13.54
2022-12-31T11:59:48.487Z,13.73
2022-12-31T12:02:26.770Z,14.09
2022-12-31T12:04:56.862Z,13.99
2022-12-31T12:07:24.226Z,14.09
2022-12-31T12:09:54.532Z,14.18
2022-12-31T12:12:21.751Z,14.22
2022-12-31T12:14:55.055Z,14.33
2022-12-31T12:17:33.001Z,14.39
2022-12-31T12:20:18.187Z,14.26
2022-12-31T12:22:54.378Z,14.38
2022-12-31T12:25:24.417Z,14.50
2022-12-31T12:27:52.064Z,14.60
2022-12-31T12:30:21.493Z,14.79
2022-12-31T12:33:04.867Z,14.76
2022-12-31T12:35:34.123Z,14.52
2022-12-31T12:38:06.111Z,14.66
2022-12-31T12:40:34.639Z,14.77
2022-12-31T12:43:02.746Z,14.71
2022-12-31T12:45:51.718Z,14.58
2022-12-31T12:48:41.242Z,14.86
2022-12-31T12:51:36.640Z,15.03
2022-12-31T12:54:25.661Z,15.18
2022-12-31T12:57:17.658Z,15.25
2022-12-31T12:59:57.573Z,14.99
2022-12-31T13:02:27.200Z,14.89
2022-12-31T13:05:28.386Z,14.74
2022-12-31T13:08:28.009Z,15.00
2022-12-31T13:11:33.300Z,15.11
2022-12-31T13:14:14.862Z,15.19
2022-12-31T13:17:14.344Z,15.41
2022-12-31T13:20:13.007Z,15.53
2022-12-31T13:22:52.369Z,15.58
2022-12-31T13:25:52.568Z,15.51
2022-12-31T13:28:19.867Z,15.33
2022-12-31T13:30:52.327Z,15.42
2022-12-31T13:33:27.050Z,15.48
2022-12-31T13:36:04.864Z,15.37
2022-12-31T13:38:42.129Z,15.33
2022-12-31T13:41:30.524Z,15.37
2022-12-31T13:44:08.904Z,15.42
2022-12-31T13:47:07.050Z,15.57
2022-12-31T13:49:57.774Z,15.64
2022-12-31T13:52:39.950Z,15.77
2022-12-31T13:55:24.207Z,15.88
2022-12-31T13:58:01.823Z,15.86
2022-12-31T14:00:41.022Z,15.69
2022-12-31T14:03:21.599Z,15.77
2022-12-31T14:05:48.159Z,15.75
2022-12-31T14:08:15.949Z,15.67
2022-12-31T14:10:45.679Z,15.57
2022-12-31T14:13:34.602Z,15.33
2022-12-31T14:16:01.659Z,15.36
2022-12-31T14:18:54.453Z,15.32
2022-12-31T14:21:48.710Z,15.31
2022-12-31T14:24:32.907Z,15.17
2022-12-31T14:27:05.498Z,14.83
2022-12-31T14:29:35.516Z,14.96
2022-12-31T14:32:10.031Z,14.82
2022-12-31T14:34:45.424Z,14.76
2022-12-31T14:37:17.614Z,14.41
2022-12-31T14:39:59.384Z,14.24
2022-12-31T14:42:53.259Z,13.91
2022-12-31T14:45:38.602Z,13.68
2022-12-31T14:48:21.547Z,13.41
2022-12-31T14:50:49.311Z,13.22
2022-12-31T14:53:24.966Z,13.03
2022-12-31T14:55:59.420Z,12.76
2022-12-31T14:58:35.799Z,12.37
2022-12-31T15:01:19.074Z,12.27
2022-12-31T15:03:46.496Z,12.09
2022-12-31T15:06:31.797Z,11.82
2022-12-31T15:09:08.220Z,11.54
2022-12-31T15:11:46.253Z,11.33
2022-12-31T15:14:50.592Z,11.28
2022-12-31T15:17:39.188Z,11.03
2022-12-31T15:20:27.490Z,10.93
2022-12-31T15:22:54.840Z,10.79
2022-12-31T15:25:38.424Z,10.70
2022-12-31T15:28:28.816Z,10.65
2022-12-31T15:31:02.097Z,10.37
2022-12-31T15:33:37.845Z,10.50
2022-12-31T15:36:21.373Z,10.34
2022-12-31T15:38:49.541Z,10.15
2022-12-31T15:41:19.248Z,9.98
2022-12-31T15:44:01.898Z,9.93
2022-12-31T15:46:37.104Z,9.82
2022-12-31T15:49:25.977Z,9.88
2022-12-31T15:52:08.535Z,9.86
2022-12-31T15:54:56.961Z,9.82
2022-12-31T15:57:32.947Z,9.78
2022-12-31T16:00:04.807Z,9.82
2022-12-31T16:02:31.782Z,9.72
2022-12-31T16:04:58.763Z,9.70
2022-12-31T16:07:27.442Z,9.66
2022-12-31T16:09:57.362Z,9.61
2022-12-31T16:12:32.698Z,9.26
2022-12-31T16:15:01.681Z,9.01
2022-12-31T16:17:34.065Z,9.08
2022-12-31T16:20:20.025Z,8.87
2022-12-31T16:22:56.220Z,8.74
2022-12-31T16:25:33.125Z,8.65
2022-12-31T16:28:02.645Z,8.41
2022-12-31T16:30:31.284Z,8.07
2022-12-31T16:33:04.479Z,7.95
2022-12-31T16:35:33.101Z,7.74
2022-12-31T16:38:19.211Z,7.62
2022-12-31T16:41:01.047Z,7.50
2022-12-31T16:43:37.329Z,7.37
2022-12-31T16:46:27.595Z,7.29
2022-12-31T16:48:57.050Z,7.24
2022-12-31T16:51:27.604Z,7.24
2022-12-31T16:53:54.885Z,7.18
2022-12-31T16:56:32.127Z,7.23
2022-12-31T16:59:03.818Z,7.19
2022-12-31T17:01:34.292Z,7.12
2022-12-31T17:04:10.487Z,6.68
2022-12-31T17:06:37.207Z,7.19
2022-12-31T17:09:12.843Z,7.24
2022-12-31T17:11:50.777Z,7.20
2022-12-31T17:14:20.448Z,7.33
2022-12-31T17:17:06.842Z,7.29
2022-12-31T17:19:47.537Z,7.18
2022-12-31T17:22:32.806Z,7.11
2022-12-31T17:25:06.327Z,7.13
2022-12-31T17:27:34.499Z,7.06
2022-12-31T17:30:35.682Z,7.02
2022-12-31T17:33:28.799Z,6.95
2022-12-31T17:36:15.660Z,7.02
2022-12-31T17:38:42.846Z,7.10
2022-12-31T17:41:17.253Z,7.24
2022-12-31T17:43:44.136Z,7.33
2022-12-31T17:46:16.401Z,7.39
2022-12-31T17:48:45.175Z,7.48
2022-12-31T17:51:11.981Z,7.48
2022-12-31T17:53:38.653Z,7.47
2022-12-31T17:56:07.632Z,7.42
2022-12-31T17:58:54.086Z,7.41
2022-12-31T18:01:22.952Z,7.36
2022-12-31T18:03:50.310Z,7.43
2022-12-31T18:06:19.238Z,7.38
2022-12-31T18:08:46.055Z,7.28
2022-12-31T18:11:19.817Z,7.23
2022-12-31T18:13:47.229Z,7.12
2022-12-31T18:16:14.563Z,7.17
2022-12-31T18:18:42.375Z,7.23
2022-12-31T18:21:26.830Z,7.15
2022-12-31T18:26:21.746Z,7.00
2022-12-31T18:28:49.085Z,6.93
2022-12-31T18:31:24.837Z,6.79
2022-12-31T18:33:53.179Z,6.27
2022-12-31T18:36:22.519Z,5.92
2022-12-31T18:38:49.210Z,5.72
2022-12-31T18:41:23.534Z,5.76
2022-12-31T18:43:50.903Z,5.70
2022-12-31T18:46:20.021Z,5.77
2022-12-31T18:48:47.026Z,5.91
2022-12-31T18:51:31.243Z,5.99
2022-12-31T18:54:00.038Z,5.72
2022-12-31T18:56:27.634Z,5.99
2022-12-31T18:58:54.543Z,5.99
2022-12-31T19:01:27.138Z,6.17
2022-12-31T19:03:56.552Z,6.20
2022-12-31T19:06:23.679Z,6.19
2022-12-31T19:08:50.461Z,6.24
2022-12-31T19:11:17.611Z,6.37
2022-12-31T19:13:44.266Z,6.32
2022-12-31T19:16:11.513Z,6.47
2022-12-31T19:18:38.189Z,6.45
2022-12-31T19:21:05.649Z,6.53
2022-12-31T19:23:32.987Z,6.52
2022-12-31T19:25:59.613Z,6.46
2022-12-31T19:28:27.818Z,6.43
2022-12-31T19:30:54.721Z,6.40
2022-12-31T19:33:21.394Z,6.38
2022-12-31T19:35:48.354Z,6.24
2022-12-31T19:38:19.079Z,6.30
2022-12-31T19:40:46.996Z,6.01
2022-12-31T19:43:15.762Z,6.20
2022-12-31T19:45:43.793Z,5.83
2022-12-31T19:48:25.792Z,6.05
2022-12-31T19:50:57.193Z,6.03
2022-12-31T19:53:26.067Z,6.15
2022-12-31T19:55:53.613Z,6.05
2022-12-31T19:58:26.142Z,5.92
2022-12-31T20:00:58.445Z,5.67
2022-12-31T20:03:29.104Z,5.53
2022-12-31T20:06:08.196Z,5.36
2022-12-31T20:08:36.959Z,5.15
2022-12-31T20:11:15.566Z,4.95
2022-12-31T20:13:42.920Z,4.78
2022-12-31T20:16:15.740Z,4.79
2022-12-31T20:18:44.314Z,4.70
2022-12-31T20:21:13.255Z,4.66
2022-12-31T20:23:40.414Z,4.70
2022-12-31T20:26:07.075Z,4.70
2022-12-31T20:28:33.741Z,4.66
2022-12-31T20:31:14.551Z,4.74
2022-12-31T20:33:41.636Z,4.59
2022-12-31T20:36:11.581Z,4.66
2022-12-31T20:38:38.658Z,4.82
2022-12-31T20:41:10.234Z,4.85
2022-12-31T20:43:37.498Z,4.80
2022-12-31T20:46:15.547Z,5.00
2022-12-31T20:48:43.989Z,5.10
2022-12-31T20:51:11.667Z,5.12
2022-12-31T20:53:38.552Z,5.19
2022-12-31T20:56:09.559Z,5.06
2022-12-31T20:58:36.659Z,5.11
2022-12-31T21:01:07.048Z,5.12
2022-12-31T21:06:25.663Z,5.14
2022-12-31T21:08:52.558Z,5.18
2022-12-31T21:11:37.652Z,5.20
2022-12-31T21:14:04.511Z,5.03
2022-12-31T21:16:31.854Z,4.98
2022-12-31T21:18:58.795Z,4.84
2022-12-31T21:21:25.549Z,4.68
2022-12-31T21:23:52.445Z,4.64
2022-12-31T21:26:19.584Z,4.59
2022-12-31T21:28:46.394Z,4.67
2022-12-31T21:31:14.470Z,4.70
2022-12-31T21:33:45.504Z,4.76
2022-12-31T21:36:12.622Z,4.75
2022-12-31T21:38:39.682Z,4.81
2022-12-31T21:41:08.526Z,4.77
2022-12-31T21:43:35.323Z,4.69
2022-12-31T21:46:04.192Z,4.58
2022-12-31T21:48:31.351Z,4.62
2022-12-31T21:51:10.001Z,4.53
2022-12-31T21:53:37.660Z,4.52
2022-12-31T21:56:08.285Z,4.43
2022-12-31T21:58:36.485Z,4.13
2022-12-31T22:01:22.057Z,4.11
2022-12-31T22:03:48.802Z,3.91
2022-12-31T22:06:22.372Z,3.77
2022-12-31T22:08:59.390Z,3.70
2022-12-31T22:11:28.244Z,3.69
2022-12-31T22:13:55.361Z,3.71
2022-12-31T22:16:22.724Z,3.69
2022-12-31T22:18:49.871Z,3.72
2022-12-31T22:21:21.686Z,3.70
2022-12-31T22:23:50.868Z,3.62
2022-12-31T22:26:20.019Z,3.52
2022-12-31T22:28:47.143Z,3.63
2022-12-31T22:31:19.593Z,3.58
2022-12-31T22:33:47.503Z,3.62
2022-12-31T22:36:18.073Z,3.52
2022-12-31T22:38:45.512Z,3.07
2022-12-31T22:41:15.143Z,3.17
2022-12-31T22:43:44.643Z,3.01
2022-12-31T22:46:12.910Z,3.04
2022-12-31T22:48:40.543Z,3.03
2022-12-31T22:51:09.978Z,3.04
2022-12-31T22:53:38.615Z,3.07
2022-12-31T22:56:06.079Z,3.06
2022-12-31T22:58:32.862Z,3.03
2022-12-31T23:00:59.628Z,2.86
2022-12-31T23:03:26.338Z,2.86
2022-12-31T23:05:53.050Z,2.92
2022-12-31T23:08:23.355Z,2.87
2022-12-31T23:11:01.655Z,2.80
2022-12-31T23:13:50.890Z,2.77
2022-12-31T23:16:36.970Z,2.79
2022-12-31T23:19:22.577Z,2.71
2022-12-31T23:22:07.792Z,2.70
2022-12-31T23:24:34.666Z,2.63
2022-12-31T23:27:01.412Z,2.78
2022-12-31T23:29:28.212Z,2.68
2022-12-31T23:31:54.959Z,2.65
2022-12-31T23:34:21.799Z,2.63
2022-12-31T23:36:48.544Z,2.57
2022-12-31T23:39:15.485Z,2.63
2022-12-31T23:41:42.260Z,2.66
2022-12-31T23:44:11.981Z,2.65
2022-12-31T23:46:39.816Z,2.77
2022-12-31T23:49:06.892Z,2.92
2022-12-31T23:51:33.529Z,2.82
2022-12-31T23:54:00.935Z,2.90
2022-12-31T23:56:27.570Z,2.62
2022-12-31T23:58:55.714Z,2.87
